Time;durP1;ratioP1;P1;durP2;ratioP2;P2;SDS_P1;SDS_P2;PMS_P1;PMS_P2;Temp;Humidity;BMP_temperature;BMP_pressure;BME280_temperature;BME280_humidity;BME280_pressure;Samples;Min_cycle;Max_cycle;Signal;HPM_P1;HPM_P2
2021/05/24 00:00:53;;;;;;;1.87;1.47;;;7.60;99.90;;;;;;494052;237;27879;-72
2021/05/24 00:02:54;;;;;;;3.17;1.70;;;7.70;99.90;;;;;;494117;241;28329;-74
2021/05/24 00:04:56;;;;;;;2.33;1.40;;;7.70;99.90;;;;;;494116;241;28277;-72
2021/05/24 00:06:57;;;;;;;1.40;1.33;;;7.80;99.90;;;;;;494107;241;28590;-73
2021/05/24 00:08:58;;;;;;;1.57;1.50;;;7.70;99.90;;;;;;494100;241;28417;-72
2021/05/24 00:10:59;;;;;;;1.57;1.23;;;7.80;99.90;;;;;;494111;241;28227;-73
2021/05/24 00:13:02;;;;;;;1.10;1.10;;;7.80;99.90;;;;;;494103;241;28070;-73
2021/05/24 00:15:02;;;;;;;2.30;1.50;;;7.80;99.90;;;;;;494048;241;27828;-72
2021/05/24 00:17:03;;;;;;;3.47;1.30;;;7.80;99.90;;;;;;494159;241;27611;-73
2021/05/24 00:19:04;;;;;;;1.70;1.40;;;7.60;99.90;;;;;;494167;241;28153;-73
2021/05/24 00:21:06;;;;;;;3.43;1.50;;;7.60;99.90;;;;;;494015;241;27949;-73
2021/05/24 00:23:07;;;;;;;3.27;1.40;;;7.50;99.90;;;;;;494092;237;27843;-72
2021/05/24 00:25:08;;;;;;;1.60;1.50;;;7.40;99.90;;;;;;494091;241;27590;-73
2021/05/24 00:27:09;;;;;;;1.57;1.47;;;7.40;99.90;;;;;;494105;241;27851;-73
2021/05/24 00:29:15;;;;;;;1.83;1.50;;;7.30;99.90;;;;;;494076;239;28092;-72
2021/05/24 00:31:12;;;;;;;1.50;1.40;;;7.30;99.90;;;;;;493784;241;27863;-73
2021/05/24 00:33:13;;;;;;;3.37;1.53;;;7.30;99.90;;;;;;494158;241;27827;-73
2021/05/24 00:35:14;;;;;;;4.73;1.50;;;7.20;99.90;;;;;;494143;241;28168;-72
2021/05/24 00:37:16;;;;;;;1.33;1.23;;;7.20;99.90;;;;;;494214;241;28079;-73
2021/05/24 00:39:17;;;;;;;1.60;1.50;;;7.20;99.90;;;;;;494161;241;28063;-72
2021/05/24 00:41:18;;;;;;;1.50;1.40;;;7.20;99.90;;;;;;494147;241;28420;-73
2021/05/24 00:43:19;;;;;;;1.33;1.23;;;7.20;99.90;;;;;;494157;239;28400;-72
2021/05/24 00:45:21;;;;;;;2.27;1.20;;;7.10;99.90;;;;;;494152;241;27921;-72
2021/05/24 00:47:22;;;;;;;1.77;1.60;;;7.20;99.90;;;;;;494090;241;28456;-73
2021/05/24 00:49:23;;;;;;;1.40;1.30;;;7.10;99.90;;;;;;494087;241;28269;-73
2021/05/24 00:51:24;;;;;;;1.90;1.50;;;7.10;99.90;;;;;;494087;241;27991;-73
2021/05/24 00:53:26;;;;;;;1.57;1.47;;;7.10;99.90;;;;;;494107;241;27995;-72
2021/05/24 00:55:27;;;;;;;3.03;1.40;;;7.10;99.90;;;;;;494005;241;28073;-72
2021/05/24 00:57:28;;;;;;;1.67;1.57;;;7.10;99.90;;;;;;494170;238;27762;-74
2021/05/24 00:59:29;;;;;;;1.73;1.50;;;7.10;99.90;;;;;;494084;241;27773;-73
2021/05/24 01:01:31;;;;;;;1.23;1.17;;;7.10;99.90;;;;;;494078;241;27993;-72
2021/05/24 01:03:32;;;;;;;1.47;1.37;;;7.20;99.90;;;;;;494083;241;28126;-72
2021/05/24 01:05:33;;;;;;;1.83;1.73;;;7.10;99.90;;;;;;494075;241;28014;-74
2021/05/24 01:07:34;;;;;;;7.20;2.00;;;7.10;99.90;;;;;;494161;241;28309;-74
2021/05/24 01:09:36;;;;;;;4.80;1.70;;;7.00;99.90;;;;;;494101;237;27999;-73
2021/05/24 01:11:37;;;;;;;5.00;1.97;;;6.90;99.90;;;;;;494048;241;27759;-73
2021/05/24 01:13:38;;;;;;;1.60;1.50;;;6.90;99.90;;;;;;494078;241;28010;-72
2021/05/24 01:15:39;;;;;;;1.70;1.60;;;6.90;99.90;;;;;;494088;241;28335;-72
2021/05/24 01:17:41;;;;;;;2.97;1.53;;;6.90;99.90;;;;;;494077;241;28494;-73
2021/05/24 01:19:42;;;;;;;3.00;1.40;;;6.90;99.90;;;;;;494070;241;28396;-73
2021/05/24 01:21:43;;;;;;;2.30;1.30;;;7.00;99.90;;;;;;494100;241;28599;-73
2021/05/24 01:23:44;;;;;;;2.00;1.40;;;7.00;99.90;;;;;;494099;237;28161;-72
2021/05/24 01:25:46;;;;;;;4.57;1.60;;;7.00;99.90;;;;;;493992;241;28479;-73
2021/05/24 01:27:47;;;;;;;1.70;1.60;;;7.00;99.90;;;;;;493672;241;27754;-72
2021/05/24 01:29:48;;;;;;;1.40;1.30;;;7.00;99.90;;;;;;494073;241;27990;-72
2021/05/24 01:31:49;;;;;;;1.40;1.33;;;7.00;99.90;;;;;;494165;241;27861;-73
2021/05/24 01:33:51;;;;;;;2.60;1.37;;;7.00;99.90;;;;;;494048;241;27961;-72
2021/05/24 01:35:52;;;;;;;1.77;1.60;;;6.90;99.90;;;;;;494068;241;27734;-72
2021/05/24 01:37:53;;;;;;;3.90;1.50;;;6.90;99.90;;;;;;494044;241;27951;-72
2021/05/24 01:39:54;;;;;;;1.70;1.40;;;6.90;99.90;;;;;;494065;241;27597;-72
2021/05/24 01:41:56;;;;;;;1.80;1.53;;;6.80;99.90;;;;;;494067;241;28000;-73
2021/05/24 01:43:57;;;;;;;2.20;1.70;;;6.80;99.90;;;;;;494073;241;28217;-72
2021/05/24 01:45:58;;;;;;;7.70;2.67;;;6.80;99.90;;;;;;494099;237;27858;-72
2021/05/24 01:47:59;;;;;;;1.90;1.63;;;6.70;99.90;;;;;;494205;241;28296;-72
2021/05/24 01:50:01;;;;;;;1.60;1.50;;;6.70;99.90;;;;;;494067;241;28105;-72
2021/05/24 01:52:02;;;;;;;1.67;1.57;;;6.60;99.90;;;;;;494187;241;27626;-73
2021/05/24 01:54:03;;;;;;;1.70;1.60;;;6.70;99.90;;;;;;494176;239;28059;-72
2021/05/24 01:56:04;;;;;;;2.00;1.80;;;6.70;99.90;;;;;;494136;241;28191;-73
2021/05/24 01:58:06;;;;;;;2.83;1.50;;;6.60;99.90;;;;;;494152;241;28571;-72
2021/05/24 02:00:07;;;;;;;1.43;1.33;;;6.70;99.90;;;;;;494184;241;28317;-73
2021/05/24 02:02:08;;;;;;;3.40;1.70;;;6.70;99.90;;;;;;493973;241;28450;-73
2021/05/24 02:04:09;;;;;;;2.43;1.70;;;6.70;99.90;;;;;;494191;241;28512;-72
2021/05/24 02:06:11;;;;;;;2.20;1.50;;;6.60;99.90;;;;;;494084;241;27918;-72
2021/05/24 02:08:12;;;;;;;1.50;1.40;;;6.60;99.90;;;;;;494173;241;27952;-72
2021/05/24 02:10:13;;;;;;;1.70;1.60;;;6.60;99.90;;;;;;494149;239;28823;-72
2021/05/24 02:12:14;;;;;;;1.60;1.50;;;6.60;99.90;;;;;;494166;241;27529;-74
2021/05/24 02:14:16;;;;;;;1.40;1.30;;;6.50;99.90;;;;;;494082;241;27886;-72
2021/05/24 02:16:17;;;;;;;1.50;1.40;;;6.50;99.90;;;;;;494060;241;28248;-73
2021/05/24 02:18:18;;;;;;;1.67;1.50;;;6.40;99.90;;;;;;494143;241;27565;-73
2021/05/24 02:20:23;;;;;;;1.80;1.70;;;6.40;99.90;;;;;;494054;239;27859;-72
2021/05/24 02:22:21;;;;;;;2.37;1.60;;;6.40;99.90;;;;;;493755;241;28310;-73
2021/05/24 02:24:22;;;;;;;3.00;1.50;;;6.40;99.90;;;;;;494076;241;28580;-72
2021/05/24 02:26:23;;;;;;;3.80;1.75;;;6.30;99.90;;;;;;494055;241;28054;-72
2021/05/24 02:28:24;;;;;;;4.55;1.65;;;6.30;99.90;;;;;;494088;241;27554;-72
2021/05/24 02:30:26;;;;;;;2.57;1.70;;;6.30;99.90;;;;;;494059;241;27518;-73
2021/05/24 02:32:27;;;;;;;2.50;2.00;;;6.30;99.90;;;;;;494078;237;28192;-72
2021/05/24 02:34:28;;;;;;;3.33;1.67;;;6.30;99.90;;;;;;494045;241;28632;-73
2021/05/24 02:36:29;;;;;;;2.37;2.17;;;6.20;99.90;;;;;;494095;241;27882;-74
2021/05/24 02:38:31;;;;;;;1.90;1.80;;;6.30;99.90;;;;;;493760;241;27939;-73
2021/05/24 02:40:32;;;;;;;2.95;1.80;;;6.30;99.90;;;;;;494124;241;28808;-73
2021/05/24 02:42:33;;;;;;;1.83;1.73;;;6.30;99.90;;;;;;494068;241;27602;-73
2021/05/24 02:44:34;;;;;;;1.93;1.80;;;6.30;99.90;;;;;;494063;241;27573;-72
2021/05/24 02:46:37;;;;;;;3.17;2.87;;;6.30;99.90;;;;;;494071;241;28082;-73
2021/05/24 02:48:37;;;;;;;2.67;1.75;;;6.30;99.90;;;;;;493998;241;27828;-72
2021/05/24 02:50:38;;;;;;;2.50;1.60;;;6.30;99.90;;;;;;494142;241;27501;-72
2021/05/24 02:52:40;;;;;;;1.80;1.70;;;6.30;99.90;;;;;;494075;237;28312;-74
2021/05/24 02:54:41;;;;;;;3.97;2.08;;;6.20;99.90;;;;;;494153;241;28017;-73
2021/05/24 02:56:42;;;;;;;3.83;1.60;;;6.20;99.90;;;;;;494147;241;27505;-73
2021/05/24 02:58:43;;;;;;;2.75;1.85;;;6.20;99.90;;;;;;494174;241;27489;-73
2021/05/24 03:00:45;;;;;;;5.20;2.57;;;6.20;99.90;;;;;;494060;237;27628;-73
2021/05/24 03:02:47;;;;;;;2.30;2.20;;;6.30;99.90;;;;;;494174;241;28865;-73
2021/05/24 03:04:47;;;;;;;2.10;1.80;;;6.30;99.90;;;;;;494159;241;28809;-73
2021/05/24 03:06:48;;;;;;;1.80;1.70;;;6.30;99.90;;;;;;494054;239;27972;-73
2021/05/24 03:08:50;;;;;;;3.40;2.00;;;6.40;99.90;;;;;;494070;241;28492;-73
2021/05/24 03:10:51;;;;;;;3.05;2.30;;;6.40;99.90;;;;;;494051;241;28091;-72
2021/05/24 03:12:52;;;;;;;2.60;2.00;;;6.40;99.90;;;;;;494149;237;28063;-74
2021/05/24 03:14:53;;;;;;;1.60;1.50;;;6.40;99.90;;;;;;494017;241;29437;-72
2021/05/24 03:16:55;;;;;;;1.80;1.70;;;6.50;99.90;;;;;;493945;241;27489;-72
2021/05/24 03:18:56;;;;;;;1.90;1.80;;;6.40;99.90;;;;;;494009;241;28060;-72
2021/05/24 03:20:57;;;;;;;2.00;1.80;;;6.40;99.90;;;;;;494042;241;27954;-73
2021/05/24 03:22:58;;;;;;;2.43;2.23;;;6.40;99.90;;;;;;494080;241;28976;-73
2021/05/24 03:25:00;;;;;;;2.03;1.80;;;6.40;99.90;;;;;;494031;239;27689;-72
2021/05/24 03:27:01;;;;;;;2.17;1.75;;;6.30;99.90;;;;;;494023;241;27714;-73
2021/05/24 03:29:02;;;;;;;2.50;2.30;;;6.30;99.90;;;;;;494034;241;27470;-72
2021/05/24 03:31:04;;;;;;;2.33;2.13;;;6.20;99.90;;;;;;494147;237;27745;-73
2021/05/24 03:33:05;;;;;;;2.10;1.90;;;6.20;99.90;;;;;;494020;239;28066;-73
2021/05/24 03:35:06;;;;;;;2.80;2.07;;;6.20;99.90;;;;;;494041;241;27979;-72
2021/05/24 03:37:07;;;;;;;2.40;2.20;;;6.20;99.90;;;;;;494116;241;28572;-72
2021/05/24 03:39:08;;;;;;;2.05;1.95;;;6.10;99.90;;;;;;494109;241;29323;-73
2021/05/24 03:41:10;;;;;;;1.80;1.70;;;6.10;99.90;;;;;;494110;241;28065;-73
2021/05/24 03:43:11;;;;;;;1.80;1.70;;;6.00;99.90;;;;;;494053;241;28826;-72
2021/05/24 03:45:12;;;;;;;2.05;1.95;;;6.00;99.90;;;;;;494070;241;27450;-73
2021/05/24 03:47:13;;;;;;;2.03;1.92;;;6.00;99.90;;;;;;494110;241;27522;-73
2021/05/24 03:49:15;;;;;;;2.28;1.87;;;6.00;99.90;;;;;;493948;241;27468;-72
2021/05/24 03:51:16;;;;;;;3.25;1.90;;;6.10;99.90;;;;;;494028;241;27549;-73
2021/05/24 03:53:17;;;;;;;2.90;2.00;;;6.20;99.90;;;;;;494121;241;28053;-72
2021/05/24 03:55:18;;;;;;;3.30;1.60;;;6.20;99.90;;;;;;494106;239;28405;-72
2021/05/24 03:57:20;;;;;;;2.40;1.80;;;6.20;99.90;;;;;;494053;241;27491;-73
2021/05/24 03:59:21;;;;;;;2.12;2.03;;;6.20;99.90;;;;;;494083;241;28373;-72
2021/05/24 04:01:22;;;;;;;2.10;1.90;;;6.20;99.90;;;;;;494011;241;27505;-72
2021/05/24 04:03:24;;;;;;;2.85;1.80;;;6.20;99.90;;;;;;494185;241;27513;-72
2021/05/24 04:05:32;;;;;;;1.83;1.73;;;6.30;99.90;;;;;;494082;241;27516;-72
2021/05/24 04:07:29;;;;;;;6.40;1.90;;;6.10;99.90;;;;;;493747;241;27611;-72
2021/05/24 04:09:31;;;;;;;5.57;2.30;;;6.00;99.90;;;;;;494073;241;27819;-72
2021/05/24 04:11:32;;;;;;;1.90;1.80;;;6.00;99.90;;;;;;494100;241;27459;-72
2021/05/24 04:13:33;;;;;;;2.33;2.13;;;6.00;99.90;;;;;;494065;241;28074;-73
2021/05/24 04:15:34;;;;;;;1.70;1.60;;;6.10;99.90;;;;;;494106;241;29148;-73
2021/05/24 04:17:38;;;;;;;2.40;1.98;;;6.10;99.90;;;;;;494017;241;28549;-73
2021/05/24 04:19:37;;;;;;;3.22;2.20;;;6.10;99.90;;;;;;493884;241;28101;-72
2021/05/24 04:21:38;;;;;;;2.45;2.22;;;6.20;99.90;;;;;;493678;241;27505;-72
2021/05/24 04:23:39;;;;;;;1.98;1.80;;;6.10;99.90;;;;;;493809;241;27478;-73
2021/05/24 04:25:40;;;;;;;2.53;1.60;;;6.20;99.90;;;;;;494058;241;27504;-74
2021/05/24 04:27:42;;;;;;;2.50;1.80;;;6.30;99.90;;;;;;494095;241;27469;-72
2021/05/24 04:29:43;;;;;;;2.40;1.80;;;6.30;99.90;;;;;;494163;241;27826;-72
2021/05/24 04:31:44;;;;;;;2.37;1.87;;;6.30;99.90;;;;;;494097;241;29331;-74
2021/05/24 04:33:45;;;;;;;3.03;1.98;;;6.40;99.90;;;;;;494164;241;29252;-72
2021/05/24 04:35:47;;;;;;;2.30;1.70;;;6.40;99.90;;;;;;494175;241;27513;-73
2021/05/24 04:37:48;;;;;;;2.17;1.70;;;6.40;99.90;;;;;;494128;241;27688;-73
2021/05/24 04:39:49;;;;;;;2.30;2.00;;;6.50;99.90;;;;;;494093;241;27723;-73
2021/05/24 04:41:50;;;;;;;1.70;1.50;;;6.50;99.90;;;;;;494087;241;28248;-72
2021/05/24 04:43:56;;;;;;;1.80;1.70;;;6.60;99.90;;;;;;494184;241;28321;-73
2021/05/24 04:45:53;;;;;;;2.50;1.80;;;6.70;99.90;;;;;;493866;241;28403;-73
2021/05/24 04:47:54;;;;;;;3.20;2.57;;;6.70;99.90;;;;;;494221;241;27847;-72
2021/05/24 04:49:56;;;;;;;1.98;1.77;;;6.70;99.90;;;;;;494144;241;28430;-73
2021/05/24 04:51:57;;;;;;;2.20;1.90;;;6.70;99.90;;;;;;494167;241;27501;-73
2021/05/24 04:53:58;;;;;;;2.57;1.97;;;6.80;99.90;;;;;;494172;241;28627;-73
2021/05/24 04:55:59;;;;;;;2.00;1.90;;;6.80;99.90;;;;;;494113;241;28053;-73
2021/05/24 04:58:00;;;;;;;2.23;1.73;;;6.90;99.90;;;;;;494087;241;28511;-72
2021/05/24 05:00:02;;;;;;;2.20;1.57;;;7.00;99.90;;;;;;494095;237;28224;-73
2021/05/24 05:02:03;;;;;;;2.07;1.77;;;7.10;99.90;;;;;;494045;237;28479;-73
2021/05/24 05:04:04;;;;;;;2.43;2.10;;;7.10;99.90;;;;;;494093;241;28612;-72
2021/05/24 05:06:05;;;;;;;1.40;1.30;;;7.20;99.90;;;;;;494080;241;28845;-73
2021/05/24 05:08:07;;;;;;;2.33;1.73;;;7.20;99.90;;;;;;494069;241;28506;-73
2021/05/24 05:10:08;;;;;;;3.70;1.67;;;7.30;99.90;;;;;;494203;241;28055;-73
2021/05/24 05:12:09;;;;;;;4.60;1.50;;;7.30;99.90;;;;;;494183;241;28065;-72
2021/05/24 05:14:10;;;;;;;1.40;1.30;;;7.30;99.90;;;;;;494144;241;27978;-73
2021/05/24 05:16:12;;;;;;;2.27;1.80;;;7.40;99.90;;;;;;494059;241;28131;-72
2021/05/24 05:18:13;;;;;;;1.63;1.53;;;7.40;99.90;;;;;;494035;241;27785;-73
2021/05/24 05:20:14;;;;;;;2.03;1.83;;;7.40;99.90;;;;;;494145;241;27937;-74
2021/05/24 05:22:15;;;;;;;2.40;2.20;;;7.40;99.90;;;;;;494104;241;27627;-73
2021/05/24 05:24:17;;;;;;;2.47;2.00;;;7.40;99.90;;;;;;494129;241;27955;-73
2021/05/24 05:26:18;;;;;;;2.83;1.80;;;7.40;99.90;;;;;;493716;241;27941;-73
2021/05/24 05:28:22;;;;;;;3.60;2.00;;;7.50;99.90;;;;;;494115;241;27947;-73
2021/05/24 05:30:20;;;;;;;2.80;1.63;;;7.60;99.90;;;;;;493886;241;28023;-73
2021/05/24 05:32:22;;;;;;;3.50;2.07;;;7.80;99.90;;;;;;494190;241;27944;-73
2021/05/24 05:34:23;;;;;;;5.80;2.83;;;7.90;99.90;;;;;;494199;241;27903;-72
2021/05/24 05:36:25;;;;;;;2.43;2.23;;;8.00;99.90;;;;;;494082;241;27972;-74
2021/05/24 05:38:26;;;;;;;2.50;1.73;;;8.10;99.90;;;;;;494155;241;28001;-73
2021/05/24 05:40:28;;;;;;;2.17;1.97;;;8.30;99.90;;;;;;494082;237;28604;-73
2021/05/24 05:42:28;;;;;;;2.40;1.70;;;8.30;99.90;;;;;;494074;241;28532;-72
2021/05/24 05:44:29;;;;;;;2.20;2.10;;;8.50;99.90;;;;;;494190;241;28536;-73
2021/05/24 05:46:30;;;;;;;2.83;1.80;;;8.60;99.90;;;;;;494179;241;29135;-73
2021/05/24 05:48:32;;;;;;;1.80;1.70;;;8.60;99.90;;;;;;494218;241;27556;-73
2021/05/24 05:50:33;;;;;;;2.33;1.90;;;8.70;99.90;;;;;;494189;241;27964;-73
2021/05/24 05:52:37;;;;;;;2.77;1.77;;;8.70;99.90;;;;;;494204;237;27947;-72
2021/05/24 05:54:38;;;;;;;1.87;1.40;;;8.90;99.90;;;;;;494183;241;27475;-72
2021/05/24 05:56:40;;;;;;;5.40;1.80;;;9.00;99.90;;;;;;494088;241;27710;-73
2021/05/24 05:58:41;;;;;;;4.60;1.97;;;9.10;99.90;;;;;;494062;237;28455;-74
2021/05/24 06:00:42;;;;;;;2.80;1.90;;;9.30;99.90;;;;;;494100;241;28047;-73
2021/05/24 06:02:43;;;;;;;1.87;1.50;;;9.40;99.90;;;;;;494069;241;27635;-74
2021/05/24 06:04:45;;;;;;;1.47;1.30;;;9.60;99.90;;;;;;494089;241;27808;-73
2021/05/24 06:06:46;;;;;;;5.10;1.50;;;9.70;99.90;;;;;;494173;237;27986;-73
2021/05/24 06:08:47;;;;;;;2.73;1.80;;;9.80;99.90;;;;;;494090;237;28174;-73
2021/05/24 06:10:48;;;;;;;3.67;1.60;;;10.00;99.90;;;;;;494096;241;27944;-74
2021/05/24 06:12:50;;;;;;;1.40;1.30;;;10.10;99.90;;;;;;494080;241;28625;-73
2021/05/24 06:14:51;;;;;;;1.30;1.20;;;10.20;99.90;;;;;;494084;241;28228;-73
2021/05/24 06:16:52;;;;;;;3.03;2.00;;;10.30;99.90;;;;;;494074;241;28449;-72
2021/05/24 06:18:53;;;;;;;1.73;1.63;;;10.40;99.90;;;;;;494071;241;29037;-73
2021/05/24 06:20:55;;;;;;;2.87;1.63;;;10.50;99.90;;;;;;494068;241;28276;-73
2021/05/24 06:22:56;;;;;;;2.57;1.60;;;10.60;99.90;;;;;;494128;241;28455;-73
2021/05/24 06:24:58;;;;;;;1.73;1.53;;;;;;;;;;494163;241;28199;-73
2021/05/24 06:26:59;;;;;;;2.43;1.70;;;10.80;99.90;;;;;;494078;237;28682;-73
2021/05/24 06:29:01;;;;;;;2.23;2.07;;;10.90;99.90;;;;;;494067;241;28277;-73
2021/05/24 06:31:02;;;;;;;3.23;1.50;;;11.00;99.90;;;;;;494067;241;28220;-73
2021/05/24 06:33:03;;;;;;;1.70;1.60;;;11.10;99.90;;;;;;494036;241;28162;-73
2021/05/24 06:35:05;;;;;;;2.90;1.80;;;11.20;99.90;;;;;;494066;241;28164;-73
2021/05/24 06:37:06;;;;;;;3.80;2.17;;;11.20;99.90;;;;;;494060;241;28382;-73
2021/05/24 06:39:07;;;;;;;2.80;1.83;;;11.30;99.90;;;;;;494151;237;29490;-73
2021/05/24 06:41:08;;;;;;;2.53;1.60;;;11.40;99.90;;;;;;494179;241;28987;-75
2021/05/24 06:43:10;;;;;;;5.70;2.20;;;11.40;99.90;;;;;;494189;241;28641;-73
2021/05/24 06:45:11;;;;;;;3.13;1.60;;;11.50;99.90;;;;;;494187;241;28615;-73
2021/05/24 06:47:12;;;;;;;2.40;1.60;;;11.50;99.90;;;;;;494161;241;28461;-73
2021/05/24 06:49:13;;;;;;;3.00;1.60;;;11.60;99.90;;;;;;494140;241;28588;-72
2021/05/24 06:51:15;;;;;;;5.00;1.60;;;11.70;99.90;;;;;;494153;241;28518;-72
2021/05/24 06:53:16;;;;;;;5.10;1.60;;;11.60;99.90;;;;;;494157;239;28296;-73
2021/05/24 06:55:17;;;;;;;1.90;1.70;;;11.70;99.90;;;;;;494157;241;28092;-73
2021/05/24 06:57:18;;;;;;;4.00;1.50;;;11.80;99.90;;;;;;494082;241;28140;-73
2021/05/24 06:59:20;;;;;;;2.23;1.30;;;11.90;99.90;;;;;;494134;241;28922;-73
2021/05/24 07:01:21;;;;;;;1.50;1.40;;;12.00;99.90;;;;;;494160;241;29104;-74
2021/05/24 07:03:22;;;;;;;2.07;1.30;;;12.10;99.90;;;;;;494157;241;28630;-73
2021/05/24 07:05:23;;;;;;;1.63;1.53;;;12.10;99.90;;;;;;494162;241;28698;-74
2021/05/24 07:07:25;;;;;;;4.23;1.80;;;12.20;99.90;;;;;;494063;241;28744;-73
2021/05/24 07:09:26;;;;;;;2.50;1.57;;;12.30;99.90;;;;;;494069;241;28306;-72
2021/05/24 07:11:27;;;;;;;2.63;1.23;;;12.40;99.90;;;;;;494089;241;28208;-74
2021/05/24 07:13:28;;;;;;;1.30;1.20;;;12.50;99.90;;;;;;494079;241;28146;-73
2021/05/24 07:15:30;;;;;;;2.30;1.40;;;12.50;99.90;;;;;;494160;241;28200;-74
2021/05/24 07:17:31;;;;;;;3.33;1.50;;;12.60;99.90;;;;;;494083;241;28168;-73
2021/05/24 07:19:32;;;;;;;8.17;1.23;;;12.60;99.90;;;;;;494110;241;28301;-73
2021/05/24 07:21:33;;;;;;;2.03;1.73;;;12.70;99.90;;;;;;494024;241;28334;-72
2021/05/24 07:23:35;;;;;;;2.87;1.50;;;12.90;99.90;;;;;;494067;241;28267;-72
2021/05/24 07:25:36;;;;;;;1.87;1.30;;;13.10;99.90;;;;;;494082;241;28767;-74
2021/05/24 07:27:37;;;;;;;2.40;1.20;;;13.20;99.90;;;;;;494085;241;29099;-74
2021/05/24 07:29:38;;;;;;;1.30;1.20;;;13.30;99.90;;;;;;494099;241;29279;-74
2021/05/24 07:31:40;;;;;;;2.33;1.23;;;13.40;99.90;;;;;;494062;241;29006;-74
2021/05/24 07:33:41;;;;;;;2.30;1.40;;;13.50;99.90;;;;;;494073;239;28501;-73
2021/05/24 07:35:42;;;;;;;1.50;1.10;;;13.60;99.90;;;;;;494120;241;28528;-73
2021/05/24 07:37:43;;;;;;;2.87;1.20;;;13.80;99.90;;;;;;494069;241;28802;-75
2021/05/24 07:39:45;;;;;;;3.70;1.83;;;13.80;99.90;;;;;;494177;241;28852;-73
2021/05/24 07:41:46;;;;;;;2.70;1.57;;;13.80;99.90;;;;;;494084;241;29190;-73
2021/05/24 07:43:47;;;;;;;1.67;1.33;;;13.90;99.90;;;;;;494095;241;29199;-74
2021/05/24 07:45:48;;;;;;;1.97;1.30;;;14.00;99.90;;;;;;494091;241;28817;-75
2021/05/24 07:47:50;;;;;;;1.43;1.27;;;14.10;99.90;;;;;;494089;241;28794;-74
2021/05/24 07:49:51;;;;;;;1.57;1.20;;;14.10;99.90;;;;;;494078;241;29046;-75
2021/05/24 07:51:52;;;;;;;2.10;1.10;;;14.20;99.90;;;;;;494082;237;29419;-73
2021/05/24 07:53:53;;;;;;;2.10;1.23;;;14.20;99.90;;;;;;494103;241;29246;-74
2021/05/24 07:55:55;;;;;;;3.63;1.70;;;14.20;99.90;;;;;;494141;237;29428;-74
2021/05/24 07:57:56;;;;;;;1.47;1.03;;;14.20;99.90;;;;;;494143;241;28882;-73
2021/05/24 07:59:57;;;;;;;2.50;1.27;;;14.30;99.90;;;;;;494113;241;29179;-74
2021/05/24 08:02:03;;;;;;;1.60;1.30;;;14.40;99.90;;;;;;494126;241;28844;-74
2021/05/24 08:04:00;;;;;;;1.20;1.10;;;14.50;99.90;;;;;;493801;241;28909;-73
2021/05/24 08:06:01;;;;;;;1.30;1.20;;;14.60;99.90;;;;;;494156;241;28888;-73
2021/05/24 08:08:02;;;;;;;2.03;1.20;;;14.70;99.90;;;;;;494145;241;28809;-73
2021/05/24 08:10:03;;;;;;;1.87;1.40;;;14.80;99.90;;;;;;494151;241;28907;-74
2021/05/24 08:12:05;;;;;;;3.73;1.20;;;14.90;99.90;;;;;;494077;241;28914;-75
2021/05/24 08:14:06;;;;;;;2.60;1.50;;;14.90;99.90;;;;;;494058;241;29316;-75
2021/05/24 08:16:07;;;;;;;1.90;1.10;;;14.80;99.90;;;;;;494085;241;29690;-76
2021/05/24 08:18:08;;;;;;;2.70;1.50;;;14.80;99.90;;;;;;494195;241;29319;-72
2021/05/24 08:20:10;;;;;;;2.60;1.20;;;14.80;99.90;;;;;;494174;241;29390;-73
2021/05/24 08:22:11;;;;;;;2.37;1.47;;;14.70;99.90;;;;;;494179;241;28853;-72
2021/05/24 08:24:12;;;;;;;2.63;1.27;;;14.70;99.90;;;;;;494135;241;28834;-72
2021/05/24 08:26:13;;;;;;;4.93;1.33;;;14.70;99.90;;;;;;494160;241;28827;-72
2021/05/24 08:28:16;;;;;;;2.13;1.47;;;14.70;99.90;;;;;;494122;241;28879;-75
2021/05/24 08:30:16;;;;;;;3.00;1.60;;;14.60;99.90;;;;;;493981;241;28844;-74
2021/05/24 08:32:17;;;;;;;4.17;1.43;;;14.50;99.90;;;;;;494125;241;29266;-75
2021/05/24 08:34:18;;;;;;;1.50;1.40;;;14.40;99.90;;;;;;494039;241;28924;-74
2021/05/24 08:36:20;;;;;;;1.87;1.17;;;14.40;99.90;;;;;;494079;241;28955;-74
2021/05/24 08:38:21;;;;;;;2.57;1.40;;;14.30;99.90;;;;;;494191;241;29378;-73
2021/05/24 08:40:23;;;;;;;1.80;1.30;;;14.20;99.90;;;;;;494148;241;29320;-73
2021/05/24 08:42:27;;;;;;;2.30;1.30;;;14.20;99.90;;;;;;494144;241;29334;-73
2021/05/24 08:44:25;;;;;;;2.83;1.43;;;14.30;99.90;;;;;;493726;241;29308;-73
2021/05/24 08:46:26;;;;;;;3.50;1.23;;;14.40;99.90;;;;;;494200;241;28843;-73
2021/05/24 08:48:27;;;;;;;2.57;1.40;;;14.40;99.90;;;;;;494170;241;29068;-73
2021/05/24 08:50:28;;;;;;;1.30;1.20;;;14.50;99.90;;;;;;494067;241;28841;-75
2021/05/24 08:52:30;;;;;;;2.10;1.10;;;14.60;99.90;;;;;;494078;241;28916;-73
2021/05/24 08:54:31;;;;;;;4.83;1.50;;;14.70;99.90;;;;;;494070;241;28832;-74
2021/05/24 08:56:32;;;;;;;1.67;1.20;;;14.80;99.90;;;;;;494113;241;29212;-77
2021/05/24 08:58:33;;;;;;;2.00;1.23;;;14.80;99.90;;;;;;494083;241;28905;-73
2021/05/24 09:00:35;;;;;;;2.23;1.30;;;14.90;99.90;;;;;;494092;241;28841;-73
2021/05/24 09:02:36;;;;;;;4.80;1.47;;;15.00;99.90;;;;;;494053;241;29272;-73
2021/05/24 09:04:37;;;;;;;4.60;1.33;;;15.10;99.90;;;;;;494064;241;29706;-74
2021/05/24 09:06:39;;;;;;;3.37;1.57;;;15.20;99.90;;;;;;494064;241;29393;-75
2021/05/24 09:08:40;;;;;;;3.87;1.50;;;15.30;99.90;;;;;;494088;241;29340;-74
2021/05/24 09:10:41;;;;;;;2.50;1.33;;;15.30;99.90;;;;;;494084;241;28911;-75
2021/05/24 09:12:42;;;;;;;2.30;1.47;;;15.60;99.90;;;;;;494086;241;28844;-75
2021/05/24 09:14:43;;;;;;;5.50;1.23;;;15.70;99.90;;;;;;494133;239;28846;-73
2021/05/24 09:16:45;;;;;;;1.70;1.60;;;15.80;99.90;;;;;;494042;239;28900;-74
2021/05/24 09:18:46;;;;;;;1.40;1.30;;;15.80;99.90;;;;;;494086;241;28913;-75
2021/05/24 09:20:49;;;;;;;1.97;1.30;;;15.90;99.90;;;;;;494040;241;29305;-75
2021/05/24 09:22:48;;;;;;;6.17;1.43;;;16.00;99.90;;;;;;493978;241;28879;-72
2021/05/24 09:24:51;;;;;;;2.83;1.20;;;16.20;99.90;;;;;;494042;241;28852;-76
2021/05/24 09:26:51;;;;;;;1.47;1.37;;;16.30;99.90;;;;;;494010;239;30099;-74
2021/05/24 09:28:52;;;;;;;2.40;1.30;;;16.50;99.90;;;;;;494074;241;29410;-75
2021/05/24 09:30:53;;;;;;;4.20;1.30;;;16.60;99.90;;;;;;494072;241;29394;-75
2021/05/24 09:32:55;;;;;;;1.40;1.30;;;16.60;99.90;;;;;;494071;241;28806;-75
2021/05/24 09:34:56;;;;;;;2.40;1.50;;;16.70;99.90;;;;;;494095;241;28836;-75
2021/05/24 09:36:57;;;;;;;2.90;1.60;;;16.70;99.90;;;;;;494123;241;28853;-75
2021/05/24 09:38:58;;;;;;;3.33;1.13;;;16.80;99.90;;;;;;493902;241;28845;-75
2021/05/24 09:41:00;;;;;;;3.07;1.40;;;16.80;99.90;;;;;;494100;241;28846;-76
2021/05/24 09:43:01;;;;;;;1.33;1.23;;;16.80;99.90;;;;;;494102;241;28802;-76
2021/05/24 09:45:02;;;;;;;3.37;1.33;;;16.90;99.90;;;;;;494092;241;28857;-74
2021/05/24 09:47:03;;;;;;;2.30;1.20;;;16.90;99.90;;;;;;494117;241;28870;-74
2021/05/24 09:49:05;;;;;;;2.60;1.50;;;17.00;99.90;;;;;;494125;241;28812;-74
2021/05/24 09:51:06;;;;;;;6.40;1.47;;;16.90;99.90;;;;;;493943;239;29410;-76
2021/05/24 09:53:07;;;;;;;2.70;1.10;;;17.00;99.90;;;;;;494119;241;29690;-73
2021/05/24 09:55:08;;;;;;;1.60;1.20;;;17.00;99.90;;;;;;494093;241;29326;-73
2021/05/24 09:57:10;;;;;;;1.57;1.10;;;16.90;99.90;;;;;;494108;241;28924;-74
2021/05/24 09:59:13;;;;;;;1.83;1.20;;;16.90;99.90;;;;;;494071;241;28879;-74
2021/05/24 10:01:14;;;;;;;0.97;0.97;;;16.80;99.90;;;;;;493986;237;28817;-73
2021/05/24 10:03:15;;;;;;;1.23;1.13;;;16.90;99.90;;;;;;493898;241;28800;-75
2021/05/24 10:05:15;;;;;;;1.30;1.20;;;17.00;99.90;;;;;;494007;241;28851;-75
2021/05/24 10:07:16;;;;;;;1.87;1.20;;;17.10;99.90;;;;;;493862;241;28787;-73
2021/05/24 10:09:18;;;;;;;1.70;1.30;;;17.10;99.90;;;;;;494125;241;29196;-73
2021/05/24 10:11:18;;;;;;;1.13;1.03;;;17.10;99.90;;;;;;493999;241;28844;-73
2021/05/24 10:13:20;;;;;;;2.70;1.50;;;17.00;99.90;;;;;;494125;241;28903;-73
2021/05/24 10:15:22;;;;;;;2.53;1.00;;;17.00;99.90;;;;;;494038;241;29352;-73
2021/05/24 10:17:22;;;;;;;1.13;1.00;;;16.90;99.90;;;;;;494043;241;29281;-73
2021/05/24 10:19:24;;;;;;;1.17;1.10;;;17.10;99.90;;;;;;494084;241;29305;-73
2021/05/24 10:21:25;;;;;;;1.47;1.20;;;17.00;99.90;;;;;;494064;241;28914;-74
2021/05/24 10:23:26;;;;;;;2.07;1.10;;;16.90;99.90;;;;;;494065;241;28822;-74
2021/05/24 10:25:27;;;;;;;1.93;1.27;;;16.80;99.90;;;;;;494055;241;29276;-75
2021/05/24 10:27:28;;;;;;;2.93;1.20;;;16.70;99.90;;;;;;494071;241;28801;-75
2021/05/24 10:29:30;;;;;;;2.43;1.30;;;16.80;99.90;;;;;;494075;237;28834;-76
2021/05/24 10:31:31;;;;;;;1.43;1.33;;;16.90;99.90;;;;;;494045;241;29318;-75
2021/05/24 10:33:32;;;;;;;1.53;1.20;;;17.00;99.90;;;;;;494069;241;28804;-75
2021/05/24 10:35:33;;;;;;;4.87;1.33;;;17.10;99.90;;;;;;494093;241;28839;-75